Time;durP1;ratioP1;P1;durP2;ratioP2;P2;SDS_P1;SDS_P2;PMS_P1;PMS_P2;Temp;Humidity;BMP_temperature;BMP_pressure;BME280_temperature;BME280_humidity;BME280_pressure;Samples;Min_cycle;Max_cycle;Signal;HPM_P1;HPM_P2
2022/05/19 00:02:19;;;;;;;4.50;4.10;;;16.60;66.50;;;;;;5095371;28;20864;-59
2022/05/19 00:04:44;;;;;;;6.50;4.20;;;16.60;66.60;;;;;;5101677;28;20399;-61
2022/05/19 00:07:11;;;;;;;6.73;4.73;;;16.60;66.70;;;;;;5106284;27;20674;-60
2022/05/19 00:09:37;;;;;;;5.77;4.20;;;16.60;66.70;;;;;;5102576;28;20262;-61
2022/05/19 00:12:13;;;;;;;8.20;4.60;;;16.60;66.80;;;;;;5111658;28;20431;-59
2022/05/19 00:14:39;;;;;;;4.43;4.00;;;16.50;67.10;;;;;;5110538;27;21001;-62
2022/05/19 00:17:05;;;;;;;4.40;3.77;;;16.50;67.30;;;;;;5109138;27;20438;-59
2022/05/19 00:19:31;;;;;;;4.97;3.87;;;16.50;67.70;;;;;;5109018;27;20177;-59
2022/05/19 00:21:56;;;;;;;7.60;4.50;;;16.40;68.00;;;;;;5104193;28;20513;-60
2022/05/19 00:24:22;;;;;;;6.60;4.27;;;16.40;68.30;;;;;;5110831;27;20188;-59
2022/05/19 00:26:48;;;;;;;5.87;3.80;;;16.40;68.50;;;;;;5113706;27;20185;-60
2022/05/19 00:29:13;;;;;;;7.37;4.33;;;16.30;69.00;;;;;;5109680;27;20722;-60
2022/05/19 00:31:40;;;;;;;5.43;3.80;;;16.30;69.70;;;;;;5111050;28;20222;-59
2022/05/19 00:34:06;;;;;;;6.23;4.37;;;16.30;69.80;;;;;;5113561;27;20180;-60
2022/05/19 00:36:32;;;;;;;4.20;3.80;;;16.30;70.00;;;;;;5111427;27;20426;-60
2022/05/19 00:38:58;;;;;;;7.70;4.03;;;16.30;70.20;;;;;;5112550;27;20177;-60
2022/05/19 00:41:24;;;;;;;4.30;3.90;;;16.30;70.80;;;;;;5100519;28;20438;-61
2022/05/19 00:44:04;;;;;;;5.43;4.40;;;16.20;71.30;;;;;;5106426;28;20458;-61
2022/05/19 00:46:44;;;;;;;5.43;4.10;;;16.10;72.00;;;;;;5111633;28;20892;-60
2022/05/19 00:49:17;;;;;;;7.27;4.10;;;16.00;72.90;;;;;;5109977;27;20434;-61
2022/05/19 00:51:50;;;;;;;5.47;3.90;;;16.00;74.20;;;;;;5109400;28;20418;-59
2022/05/19 00:54:21;;;;;;;5.10;4.60;;;15.90;75.70;;;;;;5116457;27;20411;-59
2022/05/19 00:56:55;;;;;;;8.93;4.33;;;15.80;76.60;;;;;;5104919;28;20791;-59
2022/05/19 00:59:31;;;;;;;5.97;4.50;;;15.80;77.50;;;;;;5105920;27;20485;-60
2022/05/19 01:01:57;;;;;;;4.50;3.77;;;15.70;78.30;;;;;;5107716;27;20434;-59
2022/05/19 01:04:53;;;;;;;5.50;3.80;;;15.70;77.70;;;;;;5108228;27;20472;-60
2022/05/19 01:07:46;;;;;;;6.60;4.20;;;15.70;77.10;;;;;;5099300;28;20293;-59
2022/05/19 01:10:13;;;;;;;4.50;4.10;;;15.70;76.60;;;;;;5082217;28;21084;-60
2022/05/19 01:12:40;;;;;;;7.40;4.10;;;15.60;76.90;;;;;;5104396;27;20467;-60
2022/05/19 01:15:06;;;;;;;6.80;4.40;;;15.60;77.30;;;;;;5096641;27;20431;-60
2022/05/19 01:17:34;;;;;;;10.43;4.03;;;15.50;77.20;;;;;;5106133;28;20442;-60
2022/05/19 01:20:07;;;;;;;6.10;4.40;;;15.50;78.00;;;;;;5104359;28;20927;-60
2022/05/19 01:22:55;;;;;;;6.93;3.70;;;15.40;78.50;;;;;;5105380;28;20493;-59
2022/05/19 01:25:40;;;;;;;4.57;4.13;;;15.30;79.30;;;;;;5099320;27;20424;-59
2022/05/19 01:28:07;;;;;;;10.77;4.07;;;15.30;80.00;;;;;;5106231;28;20455;-60
2022/05/19 01:30:33;;;;;;;4.43;4.03;;;15.20;80.50;;;;;;5088016;28;20423;-59
2022/05/19 01:32:59;;;;;;;6.13;4.20;;;15.20;82.40;;;;;;5106474;28;20444;-60
2022/05/19 01:35:25;;;;;;;6.10;4.10;;;15.10;82.50;;;;;;5102364;28;20434;-60
2022/05/19 01:37:51;;;;;;;5.10;4.60;;;15.10;83.40;;;;;;5113290;27;20434;-60
2022/05/19 01:40:48;;;;;;;12.37;4.67;;;15.00;84.50;;;;;;5102210;28;20428;-60
2022/05/19 01:43:29;;;;;;;7.43;3.87;;;15.00;86.30;;;;;;5103818;28;20204;-60
2022/05/19 01:46:22;;;;;;;10.73;4.10;;;15.00;86.50;;;;;;5107246;27;20429;-60
2022/05/19 01:48:52;;;;;;;4.37;3.97;;;14.90;86.70;;;;;;5106565;28;20458;-60
2022/05/19 01:51:34;;;;;;;4.40;4.10;;;14.90;85.80;;;;;;5102883;27;20800;-60
2022/05/19 01:54:21;;;;;;;5.20;4.00;;;14.90;86.90;;;;;;5100304;28;20425;-60
2022/05/19 01:57:07;;;;;;;5.73;4.47;;;14.80;86.90;;;;;;5107260;28;20544;-59
2022/05/19 01:59:51;;;;;;;4.60;4.10;;;14.80;87.20;;;;;;5104750;27;20429;-59
2022/05/19 02:02:37;;;;;;;7.73;4.30;;;14.70;88.50;;;;;;5107069;28;20449;-61
2022/05/19 02:05:30;;;;;;;6.17;4.10;;;14.70;89.30;;;;;;5105339;28;20414;-60
2022/05/19 02:08:00;;;;;;;7.40;4.40;;;14.60;90.30;;;;;;5062250;27;20474;-59
2022/05/19 02:10:29;;;;;;;4.50;4.10;;;14.60;90.80;;;;;;5112143;27;20977;-61
2022/05/19 02:12:57;;;;;;;10.97;5.53;;;14.50;91.20;;;;;;5107239;28;20524;-59
2022/05/19 02:15:26;;;;;;;5.40;4.60;;;14.50;92.10;;;;;;5106556;27;20503;-60
2022/05/19 02:17:53;;;;;;;6.17;5.03;;;14.50;92.30;;;;;;5105803;28;20431;-60
2022/05/19 02:20:22;;;;;;;6.37;5.07;;;14.40;93.00;;;;;;5105472;28;20434;-60
2022/05/19 02:22:49;;;;;;;6.93;5.23;;;14.40;93.20;;;;;;5104868;28;20447;-60
2022/05/19 02:25:17;;;;;;;6.33;4.60;;;14.30;93.90;;;;;;5098844;28;20447;-62
2022/05/19 02:27:52;;;;;;;5.23;4.57;;;14.20;94.80;;;;;;5106203;28;20600;-59
2022/05/19 02:30:24;;;;;;;6.90;5.20;;;14.20;95.30;;;;;;5105119;28;20547;-59
2022/05/19 02:32:49;;;;;;;12.83;4.57;;;14.20;95.60;;;;;;5102626;28;20443;-61
2022/05/19 02:35:16;;;;;;;6.30;5.10;;;14.10;95.60;;;;;;5112538;27;20497;-59
2022/05/19 02:37:42;;;;;;;7.13;4.47;;;14.10;96.00;;;;;;5110120;28;20180;-59
2022/05/19 02:40:11;;;;;;;5.20;4.70;;;14.10;96.30;;;;;;5107123;28;20473;-59
2022/05/19 02:42:37;;;;;;;7.33;4.90;;;14.00;96.60;;;;;;5103488;28;20460;-59
2022/05/19 02:45:03;;;;;;;5.87;4.20;;;14.00;96.60;;;;;;5109190;28;20447;-59
2022/05/19 02:47:29;;;;;;;5.50;4.30;;;14.00;96.60;;;;;;5105980;28;20445;-59
2022/05/19 02:49:54;;;;;;;5.53;5.03;;;14.00;96.50;;;;;;5099168;28;20427;-59
2022/05/19 02:52:20;;;;;;;11.10;5.37;;;14.00;96.70;;;;;;5114269;28;20607;-62
2022/05/19 02:54:46;;;;;;;6.13;4.47;;;13.90;96.80;;;;;;5099013;28;20188;-59
2022/05/19 02:57:11;;;;;;;6.23;4.83;;;13.90;97.00;;;;;;5109836;28;20185;-60
2022/05/19 02:59:37;;;;;;;8.13;5.03;;;13.90;97.00;;;;;;5109745;27;20196;-59
2022/05/19 03:02:03;;;;;;;10.63;5.10;;;13.90;97.40;;;;;;5110507;28;20207;-59
2022/05/19 03:04:29;;;;;;;5.23;4.70;;;13.80;97.40;;;;;;5103528;28;20338;-59
2022/05/19 03:06:55;;;;;;;6.23;5.60;;;13.80;97.60;;;;;;5110357;28;21211;-61
2022/05/19 03:09:21;;;;;;;7.67;4.57;;;13.80;97.90;;;;;;5106460;27;20166;-60
2022/05/19 03:11:47;;;;;;;5.00;4.50;;;13.80;97.70;;;;;;5102400;28;20190;-60
2022/05/19 03:14:12;;;;;;;10.57;5.07;;;13.70;97.50;;;;;;5100832;27;20434;-59
2022/05/19 03:16:39;;;;;;;5.20;4.70;;;13.70;97.70;;;;;;5112238;27;20496;-59
2022/05/19 03:19:06;;;;;;;5.33;4.60;;;13.60;98.50;;;;;;5115162;27;20200;-59
2022/05/19 03:21:31;;;;;;;7.50;5.20;;;13.60;98.40;;;;;;5116667;27;20449;-59
2022/05/19 03:23:57;;;;;;;9.37;5.00;;;13.60;98.30;;;;;;5107453;28;20450;-59
2022/05/19 03:26:23;;;;;;;5.33;4.63;;;13.50;98.50;;;;;;5111266;28;20264;-61
2022/05/19 03:28:48;;;;;;;9.60;5.30;;;13.50;98.80;;;;;;5116164;27;20606;-59
2022/05/19 03:31:14;;;;;;;7.10;5.30;;;13.50;98.60;;;;;;5109211;28;20179;-60
2022/05/19 03:33:40;;;;;;;5.03;4.53;;;13.50;98.80;;;;;;5107946;28;20193;-59
2022/05/19 03:36:06;;;;;;;6.83;4.70;;;13.40;99.00;;;;;;5110669;28;20265;-59
2022/05/19 03:38:32;;;;;;;6.20;4.70;;;13.40;99.70;;;;;;5108820;27;20535;-60
2022/05/19 03:40:58;;;;;;;6.83;4.63;;;13.40;99.90;;;;;;5109403;28;20177;-60
2022/05/19 03:43:23;;;;;;;10.63;4.73;;;13.30;99.90;;;;;;5104446;28;20491;-60
2022/05/19 03:45:49;;;;;;;5.43;4.93;;;13.30;99.90;;;;;;5109555;28;20218;-59
2022/05/19 03:48:15;;;;;;;10.60;5.17;;;13.30;99.90;;;;;;5111338;28;20366;-61
2022/05/19 03:50:47;;;;;;;6.70;5.37;;;13.20;99.90;;;;;;5104896;28;20177;-59
2022/05/19 03:53:13;;;;;;;10.43;4.80;;;13.20;99.90;;;;;;5090980;28;20998;-60
2022/05/19 03:55:39;;;;;;;4.97;4.40;;;13.20;99.90;;;;;;5099942;27;20454;-54
2022/05/19 03:58:05;;;;;;;8.53;5.40;;;13.20;99.90;;;;;;5107496;28;20200;-59
2022/05/19 04:00:33;;;;;;;5.87;4.73;;;13.20;99.90;;;;;;5106203;27;20207;-58
2022/05/19 04:02:59;;;;;;;11.70;5.00;;;13.20;99.90;;;;;;5096794;27;20449;-56
2022/05/19 04:05:26;;;;;;;6.70;5.20;;;13.20;99.90;;;;;;5101726;28;20495;-56
2022/05/19 04:07:52;;;;;;;6.90;5.43;;;13.20;99.90;;;;;;5105489;27;20450;-54
2022/05/19 04:10:18;;;;;;;6.03;5.40;;;13.20;99.90;;;;;;5102678;28;21325;-54
2022/05/19 04:12:45;;;;;;;12.77;4.87;;;13.20;99.90;;;;;;5102347;28;20451;-56
2022/05/19 04:15:12;;;;;;;9.07;5.77;;;13.20;99.90;;;;;;5086635;27;20431;-57
2022/05/19 04:17:38;;;;;;;8.73;5.10;;;13.20;99.90;;;;;;5101142;28;20825;-55
2022/05/19 04:20:07;;;;;;;10.57;5.50;;;13.20;99.90;;;;;;5085913;27;20473;-59
2022/05/19 04:22:33;;;;;;;7.27;5.67;;;13.20;99.90;;;;;;5084179;28;20455;-60
2022/05/19 04:25:02;;;;;;;5.83;5.30;;;13.20;99.90;;;;;;5078888;28;20855;-61
2022/05/19 04:27:29;;;;;;;9.20;5.57;;;13.20;99.90;;;;;;5102379;28;20503;-59
2022/05/19 04:29:55;;;;;;;6.00;5.10;;;13.30;99.90;;;;;;5104521;27;20423;-59
2022/05/19 04:32:20;;;;;;;7.40;5.60;;;13.30;99.90;;;;;;5102994;28;20878;-61
2022/05/19 04:34:46;;;;;;;7.60;5.10;;;13.30;99.90;;;;;;5100005;28;20483;-59
2022/05/19 04:37:12;;;;;;;8.77;5.60;;;13.30;99.90;;;;;;5103114;27;20180;-60
2022/05/19 04:39:38;;;;;;;8.27;5.10;;;13.30;99.90;;;;;;5104794;27;20178;-59
2022/05/19 04:42:11;;;;;;;5.30;4.70;;;13.40;99.90;;;;;;5090922;27;20450;-60
2022/05/19 04:44:37;;;;;;;9.07;5.27;;;13.40;99.90;;;;;;5102393;28;20434;-59
2022/05/19 04:47:04;;;;;;;6.27;5.67;;;13.40;99.90;;;;;;5101720;27;20481;-59
2022/05/19 04:49:30;;;;;;;6.83;5.80;;;13.40;99.90;;;;;;5102953;28;20439;-59
2022/05/19 04:51:55;;;;;;;8.80;5.50;;;13.50;99.90;;;;;;5098367;27;20422;-59
2022/05/19 04:54:21;;;;;;;5.90;5.30;;;13.50;99.90;;;;;;5103457;27;20174;-59
2022/05/19 04:56:47;;;;;;;6.07;5.27;;;13.50;99.80;;;;;;5104032;28;22465;-59
2022/05/19 04:59:15;;;;;;;6.87;5.83;;;13.60;99.90;;;;;;5105596;28;20169;-58
2022/05/19 05:01:42;;;;;;;7.00;5.63;;;13.60;99.90;;;;;;5087921;28;20183;-59
2022/05/19 05:04:08;;;;;;;7.80;5.80;;;13.70;99.90;;;;;;5097407;27;20427;-58
2022/05/19 05:06:33;;;;;;;10.07;5.60;;;13.70;99.90;;;;;;5107485;28;20427;-60
2022/05/19 05:08:59;;;;;;;11.20;5.77;;;13.80;99.60;;;;;;5106926;27;20578;-61
2022/05/19 05:11:25;;;;;;;6.60;5.30;;;13.80;99.30;;;;;;5105337;27;20180;-59
2022/05/19 05:13:50;;;;;;;9.30;5.67;;;13.90;98.90;;;;;;5100255;27;20208;-61
2022/05/19 05:16:16;;;;;;;10.00;5.13;;;14.00;98.70;;;;;;5081566;28;20173;-61
2022/05/19 05:18:42;;;;;;;7.80;5.40;;;14.10;98.30;;;;;;5108169;28;20173;-60
2022/05/19 05:21:08;;;;;;;10.27;5.20;;;14.20;98.00;;;;;;5084696;28;20635;-60
2022/05/19 05:23:34;;;;;;;8.13;5.07;;;14.30;97.40;;;;;;5109043;27;20217;-59
2022/05/19 05:26:01;;;;;;;7.70;5.37;;;14.40;97.60;;;;;;5107001;28;21031;-59
2022/05/19 05:28:26;;;;;;;8.23;6.07;;;14.50;96.20;;;;;;5092602;28;20200;-59
2022/05/19 05:30:52;;;;;;;12.30;5.57;;;14.60;95.70;;;;;;5111065;28;20399;-61
2022/05/19 05:33:17;;;;;;;6.93;5.40;;;14.70;94.40;;;;;;5098139;28;20190;-59
2022/05/19 05:35:43;;;;;;;6.13;5.53;;;14.80;94.60;;;;;;5105010;28;20189;-60
2022/05/19 05:38:09;;;;;;;6.13;4.50;;;14.90;93.50;;;;;;5112964;27;20175;-59
2022/05/19 05:40:35;;;;;;;5.03;4.53;;;15.00;94.00;;;;;;5116221;27;20181;-59
2022/05/19 05:43:17;;;;;;;5.83;4.40;;;15.10;93.40;;;;;;5110752;28;20197;-59
2022/05/19 05:45:43;;;;;;;10.10;5.33;;;15.20;92.00;;;;;;5108633;28;20978;-59
2022/05/19 05:48:10;;;;;;;8.10;5.63;;;15.20;90.50;;;;;;5109581;28;20997;-59
2022/05/19 05:50:36;;;;;;;10.03;5.83;;;15.20;92.10;;;;;;5106036;28;21034;-59
2022/05/19 05:53:02;;;;;;;7.83;4.80;;;15.30;92.90;;;;;;5090953;28;21188;-59
2022/05/19 05:55:29;;;;;;;6.87;5.27;;;15.40;93.60;;;;;;5109127;27;20427;-59
2022/05/19 05:57:54;;;;;;;10.43;5.00;;;15.50;93.50;;;;;;5109505;28;20414;-59
2022/05/19 06:00:21;;;;;;;7.20;5.30;;;15.60;92.60;;;;;;5109461;28;20411;-58
2022/05/19 06:02:48;;;;;;;10.90;5.70;;;15.70;91.70;;;;;;5109256;28;20266;-58
2022/05/19 06:05:14;;;;;;;5.97;5.10;;;15.70;91.70;;;;;;5105837;28;20509;-58
2022/05/19 06:07:40;;;;;;;8.13;5.03;;;15.80;90.30;;;;;;5105271;28;20524;-58
2022/05/19 06:10:07;;;;;;;10.47;5.87;;;15.90;90.60;;;;;;5104771;28;20954;-58
2022/05/19 06:12:32;;;;;;;7.90;5.83;;;16.10;90.00;;;;;;5110435;28;20196;-58
2022/05/19 06:14:58;;;;;;;8.60;5.50;;;16.20;87.80;;;;;;5109464;28;20437;-59
2022/05/19 06:17:24;;;;;;;17.20;6.10;;;16.20;85.70;;;;;;5108252;28;20568;-59
2022/05/19 06:19:50;;;;;;;8.03;6.03;;;16.30;83.80;;;;;;5109500;28;20211;-59
2022/05/19 06:22:17;;;;;;;8.90;5.97;;;16.40;82.80;;;;;;5093814;28;20440;-61
2022/05/19 06:24:44;;;;;;;10.50;6.00;;;16.40;82.40;;;;;;5089552;28;20449;-59
2022/05/19 06:27:09;;;;;;;6.30;5.20;;;16.50;80.50;;;;;;5097124;28;20420;-59
2022/05/19 06:29:35;;;;;;;7.33;4.67;;;16.50;79.50;;;;;;5109539;27;20514;-59
2022/05/19 06:32:01;;;;;;;5.50;4.93;;;16.60;78.00;;;;;;5090479;28;20196;-59
2022/05/19 06:34:26;;;;;;;7.07;6.03;;;16.60;77.60;;;;;;5108100;28;20170;-60
2022/05/19 06:36:52;;;;;;;7.40;5.73;;;16.70;76.70;;;;;;5109007;28;20169;-58
2022/05/19 06:39:17;;;;;;;9.80;7.07;;;16.80;77.30;;;;;;5102197;28;20242;-59
2022/05/19 06:42:02;;;;;;;17.10;7.67;;;16.90;78.10;;;;;;5099425;28;20272;-59
2022/05/19 06:44:32;;;;;;;13.63;7.80;;;17.00;78.50;;;;;;5102714;28;20174;-59
2022/05/19 06:46:59;;;;;;;14.97;7.60;;;17.10;76.10;;;;;;5103553;28;20438;-59
2022/05/19 06:49:25;;;;;;;11.97;6.27;;;17.30;75.90;;;;;;5109817;28;20426;-59
2022/05/19 06:51:51;;;;;;;9.90;6.00;;;17.40;75.50;;;;;;5108988;28;20399;-58
2022/05/19 06:54:17;;;;;;;11.10;5.87;;;17.60;73.20;;;;;;5089162;28;20418;-58
2022/05/19 06:56:43;;;;;;;10.73;6.47;;;17.70;72.70;;;;;;5105656;28;20426;-59
2022/05/19 06:59:08;;;;;;;12.30;6.17;;;17.80;71.60;;;;;;5103582;28;20807;-59
2022/05/19 07:01:35;;;;;;;9.30;6.30;;;17.90;69.80;;;;;;5100139;28;20657;-58
2022/05/19 07:04:01;;;;;;;10.03;5.70;;;18.10;68.80;;;;;;5104204;28;20285;-59
2022/05/19 07:06:26;;;;;;;8.60;5.40;;;18.20;68.60;;;;;;5108033;28;20472;-59
2022/05/19 07:08:52;;;;;;;6.60;5.27;;;18.30;67.90;;;;;;5107719;28;20193;-61
2022/05/19 07:11:27;;;;;;;11.87;5.20;;;18.40;67.70;;;;;;5106827;28;20665;-59
2022/05/19 07:13:59;;;;;;;11.60;6.00;;;18.50;67.40;;;;;;5098172;28;20189;-58
2022/05/19 07:16:25;;;;;;;7.50;5.30;;;18.60;66.60;;;;;;5102518;28;20438;-62
2022/05/19 07:18:51;;;;;;;7.90;5.03;;;18.70;66.90;;;;;;5088739;28;20441;-62
2022/05/19 07:21:20;;;;;;;7.50;5.30;;;18.80;66.20;;;;;;5098571;28;20595;-59
2022/05/19 07:23:46;;;;;;;6.87;5.20;;;19.00;66.90;;;;;;5084859;28;20296;-57
2022/05/19 07:26:13;;;;;;;7.57;5.27;;;19.20;67.00;;;;;;5097335;28;20588;-57
2022/05/19 07:28:38;;;;;;;9.93;6.00;;;19.40;66.60;;;;;;5081904;28;20681;-58
2022/05/19 07:31:04;;;;;;;7.47;4.87;;;19.50;64.40;;;;;;5101461;28;20448;-59
2022/05/19 07:33:35;;;;;;;16.73;5.83;;;19.60;63.90;;;;;;5105295;28;20220;-58
2022/05/19 07:36:00;;;;;;;11.67;5.60;;;19.80;63.70;;;;;;5096233;28;20661;-60
2022/05/19 07:38:26;;;;;;;11.77;5.73;;;20.00;64.10;;;;;;5103371;28;20426;-61
2022/05/19 07:40:54;;;;;;;7.93;5.60;;;20.10;63.10;;;;;;5107402;28;20184;-60
2022/05/19 07:43:35;;;;;;;9.30;5.10;;;20.20;63.00;;;;;;5108114;28;20185;-60
2022/05/19 07:46:01;;;;;;;14.40;5.63;;;20.40;63.20;;;;;;5103763;28;20495;-60
2022/05/19 07:48:27;;;;;;;9.97;5.37;;;20.60;62.30;;;;;;5108246;28;20553;-59
2022/05/19 07:50:53;;;;;;;7.97;5.40;;;20.80;62.20;;;;;;5090981;28;20173;-59
2022/05/19 07:53:19;;;;;;;22.53;5.00;;;20.90;61.20;;;;;;5108175;28;20189;-59
2022/05/19 07:55:44;;;;;;;6.03;4.90;;;21.00;62.10;;;;;;5107517;28;20995;-59
2022/05/19 07:58:10;;;;;;;10.57;5.33;;;21.20;62.60;;;;;;5111778;28;20270;-61
2022/05/19 08:00:36;;;;;;;9.67;4.93;;;21.30;61.40;;;;;;5104905;28;20783;-59
2022/05/19 08:03:01;;;;;;;11.77;5.20;;;21.40;61.30;;;;;;5110995;28;20192;-60
2022/05/19 08:05:27;;;;;;;8.23;4.63;;;21.50;60.90;;;;;;5109954;28;20260;-59
2022/05/19 08:07:53;;;;;;;4.60;4.20;;;21.70;61.00;;;;;;5092440;28;20368;-60
2022/05/19 08:10:23;;;;;;;6.70;4.30;;;21.80;60.80;;;;;;5105692;27;20177;-60
2022/05/19 08:15:35;;;;;;;6.77;4.30;;;22.10;59.10;;;;;;5108150;28;20975;-60
2022/05/19 08:18:06;;;;;;;7.30;4.73;;;22.30;58.80;;;;;;5107633;28;20512;-59
2022/05/19 08:20:33;;;;;;;7.00;4.10;;;22.40;58.40;;;;;;5108923;28;20443;-59
2022/05/19 08:22:58;;;;;;;11.50;4.37;;;22.50;57.70;;;;;;5101478;27;20447;-60
2022/05/19 08:25:27;;;;;;;5.50;4.90;;;22.70;57.80;;;;;;5106001;27;20435;-60
2022/05/19 08:27:57;;;;;;;12.00;4.30;;;22.80;58.60;;;;;;5105157;28;20211;-60
2022/05/19 08:30:23;;;;;;;7.40;4.63;;;22.90;58.90;;;;;;5106582;28;20442;-60
2022/05/19 08:32:49;;;;;;;10.43;4.37;;;23.10;57.80;;;;;;5100058;28;20495;-59
2022/05/19 08:35:15;;;;;;;5.20;4.00;;;23.20;58.50;;;;;;5098427;28;20526;-62
2022/05/19 08:37:40;;;;;;;8.30;4.70;;;23.40;58.20;;;;;;5096142;28;20185;-60
2022/05/19 08:40:07;;;;;;;4.73;3.50;;;23.50;57.30;;;;;;5106532;27;20259;-61
2022/05/19 08:42:37;;;;;;;8.30;4.20;;;23.60;56.60;;;;;;5106009;28;20196;-59
2022/05/19 08:45:08;;;;;;;6.60;4.50;;;23.80;55.80;;;;;;5100488;28;20519;-59
2022/05/19 08:47:34;;;;;;;5.37;4.60;;;23.80;55.60;;;;;;5104407;28;20796;-59
2022/05/19 08:50:11;;;;;;;7.63;4.70;;;24.00;55.90;;;;;;5091064;28;20430;-59
2022/05/19 08:52:44;;;;;;;5.57;4.50;;;24.10;54.80;;;;;;5104311;28;20482;-60
2022/05/19 08:55:14;;;;;;;6.73;3.90;;;24.10;55.00;;;;;;5104424;28;20414;-60
2022/05/19 08:58:04;;;;;;;7.37;5.00;;;24.20;53.80;;;;;;5107317;28;20430;-59
2022/05/19 09:00:38;;;;;;;9.63;5.17;;;24.30;54.20;;;;;;5105852;27;20443;-61
2022/05/19 09:03:05;;;;;;;7.80;4.40;;;24.30;53.80;;;;;;5108579;28;20442;-57
2022/05/19 09:05:49;;;;;;;9.73;4.20;;;24.40;54.20;;;;;;5103513;28;20500;-61
2022/05/19 09:08:32;;;;;;;6.03;3.93;;;24.60;54.20;;;;;;5102859;28;20452;-60
2022/05/19 09:11:04;;;;;;;6.47;4.47;;;24.70;53.50;;;;;;5106143;28;20475;-60
2022/05/19 09:13:46;;;;;;;9.10;4.37;;;24.80;53.00;;;;;;5103722;27;21212;-60
2022/05/19 09:16:20;;;;;;;9.90;4.40;;;24.90;52.80;;;;;;5107402;28;20427;-60
2022/05/19 09:19:24;;;;;;;7.83;4.27;;;25.00;52.70;;;;;;5107590;28;20445;-61
2022/05/19 09:22:00;;;;;;;6.13;3.93;;;25.20;52.40;;;;;;5106748;28;20442;-60
2022/05/19 09:24:26;;;;;;;6.50;4.03;;;25.40;51.60;;;;;;5105441;28;20964;-61
2022/05/19 09:26:54;;;;;;;7.90;4.50;;;25.50;51.60;;;;;;5098303;28;20439;-61
2022/05/19 09:29:44;;;;;;;7.33;4.10;;;25.60;50.80;;;;;;5108107;28;20206;-60
2022/05/19 09:32:18;;;;;;;7.60;3.93;;;25.60;50.30;;;;;;5094588;28;20449;-60
2022/05/19 09:34:50;;;;;;;13.00;4.50;;;25.70;50.80;;;;;;5104967;28;20434;-60
2022/05/19 09:37:36;;;;;;;5.40;4.37;;;25.60;50.80;;;;;;5083048;28;20513;-60
2022/05/19 09:40:11;;;;;;;5.13;3.77;;;25.60;50.10;;;;;;5105210;28;20510;-60
2022/05/19 09:43:06;;;;;;;8.50;4.90;;;25.70;51.40;;;;;;5108384;28;20465;-60
2022/05/19 09:46:09;;;;;;;10.53;4.23;;;25.80;52.50;;;;;;5101869;28;20430;-59
2022/05/19 09:48:41;;;;;;;6.27;4.20;;;25.90;52.30;;;;;;5105223;28;20454;-61
2022/05/19 09:51:14;;;;;;;6.50;4.40;;;26.00;52.00;;;;;;5102931;28;20445;-61
2022/05/19 09:53:46;;;;;;;5.30;3.90;;;26.20;52.00;;;;;;5091592;28;20488;-60
2022/05/19 09:56:15;;;;;;;5.20;3.93;;;26.30;51.40;;;;;;5086782;28;20518;-61
2022/05/19 09:58:44;;;;;;;8.27;3.93;;;26.40;51.50;;;;;;5105167;28;20433;-60
2022/05/19 10:01:29;;;;;;;5.37;3.60;;;26.40;50.40;;;;;;5078980;28;20431;-59
2022/05/19 10:03:58;;;;;;;6.33;4.30;;;26.50;49.20;;;;;;5106092;28;22246;-60
2022/05/19 10:06:48;;;;;;;10.33;4.07;;;26.50;47.90;;;;;;5082461;28;20442;-61
2022/05/19 10:09:17;;;;;;;6.63;4.20;;;26.50;47.90;;;;;;5102052;28;20550;-61
2022/05/19 10:11:52;;;;;;;12.13;4.50;;;26.60;47.90;;;;;;5101876;28;20464;-61
2022/05/19 10:14:25;;;;;;;4.77;3.53;;;26.70;47.80;;;;;;5097765;28;20452;-60
2022/05/19 10:17:13;;;;;;;8.00;3.90;;;26.80;47.00;;;;;;5100018;28;20818;-54
2022/05/19 10:19:56;;;;;;;9.17;4.00;;;26.90;46.60;;;;;;5105098;28;21044;-60
2022/05/19 10:22:47;;;;;;;8.00;3.87;;;27.00;46.50;;;;;;5097635;27;20481;-60
2022/05/19 10:25:31;;;;;;;8.37;3.90;;;27.20;47.40;;;;;;5097956;28;20173;-61
2022/05/19 10:31:18;;;;;;;6.03;3.83;;;27.40;47.70;;;;;;5106358;28;20809;-62
2022/05/19 10:34:02;;;;;;;9.23;4.70;;;27.60;46.30;;;;;;5102991;28;20317;-61
2022/05/19 10:36:48;;;;;;;10.13;3.40;;;27.70;47.50;;;;;;5102649;28;20263;-60
2022/05/19 10:39:51;;;;;;;6.47;3.90;;;27.90;48.20;;;;;;5097823;28;20208;-60
2022/05/19 10:42:41;;;;;;;5.57;3.80;;;28.10;48.00;;;;;;5105041;28;20283;-60
2022/05/19 10:45:18;;;;;;;9.10;4.60;;;28.20;48.00;;;;;;5098809;28;20223;-61
2022/05/19 10:47:47;;;;;;;8.93;4.33;;;28.40;47.50;;;;;;5101542;28;20223;-61
2022/05/19 10:50:23;;;;;;;9.30;4.50;;;28.30;47.90;;;;;;5107183;28;20251;-60
2022/05/19 10:53:13;;;;;;;6.97;4.77;;;28.40;49.30;;;;;;5112199;28;20192;-60
2022/05/19 10:56:03;;;;;;;8.50;4.20;;;28.50;49.30;;;;;;5096613;28;20173;-61
2022/05/19 10:58:35;;;;;;;8.20;4.00;;;28.50;47.40;;;;;;5099378;28;20887;-61
2022/05/19 11:01:00;;;;;;;8.87;4.70;;;28.60;47.00;;;;;;5108155;28;20491;-60
2022/05/19 11:03:51;;;;;;;10.03;4.20;;;28.60;46.60;;;;;;5103500;28;20192;-62
2022/05/19 11:06:36;;;;;;;8.40;4.67;;;28.70;47.40;;;;;;5104933;28;20655;-60
2022/05/19 11:09:13;;;;;;;7.32;4.75;;;28.80;47.80;;;;;;5100165;28;20199;-62
2022/05/19 11:12:18;;;;;;;10.23;4.80;;;28.90;48.80;;;;;;5091408;28;21927;-58
2022/05/19 11:15:11;;;;;;;9.77;4.07;;;29.00;46.30;;;;;;5106247;28;20212;-58
2022/05/19 11:18:15;;;;;;;4.93;4.22;;;28.90;45.50;;;;;;5101209;28;20184;-59
2022/05/19 11:21:09;;;;;;;7.40;4.30;;;28.90;45.80;;;;;;5049474;28;20260;-58
2022/05/19 11:23:46;;;;;;;7.57;4.30;;;28.90;44.70;;;;;;5108493;28;20204;-58
2022/05/19 11:26:38;;;;;;;8.57;4.10;;;28.80;44.90;;;;;;5105624;28;20164;-59
2022/05/19 11:29:06;;;;;;;10.02;4.20;;;28.80;46.80;;;;;;5093196;28;20539;-58
2022/05/19 11:31:53;;;;;;;6.97;4.70;;;28.90;44.90;;;;;;5101617;28;20168;-58
2022/05/19 11:34:35;;;;;;;7.10;4.75;;;29.00;44.80;;;;;;5111315;27;20221;-58
2022/05/19 11:37:23;;;;;;;7.40;4.50;;;29.00;44.30;;;;;;5112465;28;20226;-59
2022/05/19 11:40:07;;;;;;;11.82;5.10;;;29.00;43.80;;;;;;5093234;28;20169;-60
2022/05/19 11:42:48;;;;;;;7.38;4.82;;;29.10;44.20;;;;;;5112151;28;20271;-58
2022/05/19 11:45:34;;;;;;;7.28;4.68;;;29.10;44.80;;;;;;5111633;28;20176;-58
2022/05/19 11:55:19;;;;;;;4.72;4.28;;;29.60;44.50;;;;;;4985157;28;20186;-58
2022/05/19 11:58:09;;;;;;;5.72;3.53;;;29.80;43.60;;;;;;5091918;28;20796;-58
2022/05/19 12:00:52;;;;;;;9.77;4.13;;;29.90;43.20;;;;;;5111660;28;20238;-57
2022/05/19 12:03:46;;;;;;;5.50;4.22;;;29.80;42.60;;;;;;5091767;28;20193;-57
2022/05/19 12:06:12;;;;;;;6.20;3.75;;;29.80;42.20;;;;;;5080880;28;20874;-58
2022/05/19 12:08:58;;;;;;;4.72;3.50;;;29.90;42.10;;;;;;5111472;28;20366;-58
2022/05/19 12:11:29;;;;;;;4.88;3.10;;;30.10;41.70;;;;;;5106739;27;20276;-60
2022/05/19 12:14:07;;;;;;;6.00;3.35;;;30.20;40.80;;;;;;5110940;28;20226;-57
2022/05/19 12:16:52;;;;;;;6.45;3.30;;;30.20;38.40;;;;;;5108730;28;20248;-59
2022/05/19 12:19:39;;;;;;;3.33;3.03;;;30.20;39.40;;;;;;5114893;27;20809;-58
2022/05/19 12:22:12;;;;;;;4.32;3.30;;;30.20;37.80;;;;;;5108874;27;20215;-58
2022/05/19 12:24:51;;;;;;;3.42;3.13;;;30.20;37.40;;;;;;5115577;27;20190;-57
2022/05/19 12:27:21;;;;;;;5.63;3.40;;;30.20;37.40;;;;;;5107273;28;20177;-57
2022/05/19 12:33:20;;;;;;;5.75;3.33;;;30.30;37.40;;;;;;5098420;28;20246;-57
2022/05/19 12:35:52;;;;;;;3.45;2.90;;;30.30;37.30;;;;;;5091628;28;20330;-59
2022/05/19 12:38:49;;;;;;;4.25;3.15;;;30.30;37.90;;;;;;5097492;27;20177;-57
2022/05/19 12:41:24;;;;;;;7.43;3.13;;;30.30;37.10;;;;;;5093300;28;20215;-58
2022/05/19 12:43:51;;;;;;;6.93;3.55;;;30.20;37.20;;;;;;5093068;28;20268;-60
2022/05/19 12:46:44;;;;;;;5.82;3.53;;;30.20;37.30;;;;;;5101959;28;20169;-60
2022/05/19 12:49:20;;;;;;;8.48;3.75;;;30.30;37.90;;;;;;5091381;28;20209;-60
2022/05/19 12:52:06;;;;;;;6.38;3.63;;;30.50;37.60;;;;;;5101809;28;20173;-59
2022/05/19 12:54:33;;;;;;;4.68;3.75;;;30.60;37.80;;;;;;5105592;28;20692;-59
2022/05/19 12:57:08;;;;;;;8.60;3.80;;;30.70;37.70;;;;;;5082978;28;20193;-60
2022/05/19 13:00:01;;;;;;;12.68;3.85;;;30.80;38.00;;;;;;5099659;27;20186;-59
2022/05/19 13:02:35;;;;;;;4.90;3.22;;;31.00;38.20;;;;;;5104546;28;20406;-60
2022/05/19 13:05:30;;;;;;;7.03;4.07;;;31.10;37.80;;;;;;5103961;28;20639;-60
2022/05/19 13:08:03;;;;;;;5.28;3.75;;;31.20;37.80;;;;;;5109878;27;20228;-60
2022/05/19 13:10:56;;;;;;;8.82;3.42;;;31.40;37.30;;;;;;5089075;28;20181;-59
2022/05/19 13:13:38;;;;;;;5.30;3.47;;;31.50;38.20;;;;;;5094273;28;20221;-61
2022/05/19 13:16:12;;;;;;;9.48;4.03;;;31.70;37.30;;;;;;5104799;28;20178;-61
2022/05/19 13:18:46;;;;;;;8.13;3.95;;;31.70;37.10;;;;;;5106806;28;20266;-60
2022/05/19 13:21:20;;;;;;;10.52;3.95;;;31.80;37.00;;;;;;5106634;28;20681;-57
2022/05/19 13:23:46;;;;;;;7.43;3.70;;;31.90;36.70;;;;;;5104821;28;21449;-57
2022/05/19 13:26:34;;;;;;;5.30;3.90;;;31.90;36.70;;;;;;5103908;28;20173;-58
2022/05/19 13:32:13;;;;;;;4.68;4.15;;;31.80;36.40;;;;;;5102299;28;20180;-56